Time;durP1;ratioP1;P1;durP2;ratioP2;P2;SDS_P1;SDS_P2;PMS_P1;PMS_P2;Temp;Humidity;BMP_temperature;BMP_pressure;BME280_temperature;BME280_humidity;BME280_pressure;Samples;Min_cycle;Max_cycle;Signal;HPM_P1;HPM_P2
2023/11/04 00:01:15;;;;;;;3.10;2.97;;;;;;;;;;4133801;28;20049;-65
2023/11/04 00:03:25;;;;;;;2.63;2.53;;;;;;;;;;4133833;28;20046;-65
2023/11/04 00:05:32;;;;;;;2.70;2.60;;;;;;;;;;4133578;28;20050;-66
2023/11/04 00:07:35;;;;;;;2.30;2.13;;;;;;;;;;4133824;28;20049;-65
2023/11/04 00:09:39;;;;;;;2.80;2.70;;;;;;;;;;4133768;28;20097;-65
2023/11/04 00:11:53;;;;;;;4.07;3.15;;;;;;;;;;4117883;28;20038;-64
2023/11/04 00:13:56;;;;;;;3.00;2.80;;;;;;;;;;4133395;28;20467;-65
2023/11/04 00:15:59;;;;;;;;;;;;;;;;;;4134025;28;20088;-65
2023/11/04 00:18:02;;;;;;;11.88;4.95;;;;;;;;;;4116569;28;19941;-65
2023/11/04 00:20:06;;;;;;;16.95;6.15;;;;;;;;;;4133500;28;20053;-65
2023/11/04 00:22:10;;;;;;;9.32;5.18;;;;;;;;;;4131068;28;20178;-65
2023/11/04 00:24:13;;;;;;;5.55;4.70;;;;;;;;;;4117407;28;20042;-65
2023/11/04 00:26:17;;;;;;;6.18;3.92;;;;;;;;;;4117232;28;20047;-64
2023/11/04 00:28:20;;;;;;;3.95;3.63;;;;;;;;;;4117505;28;20415;-65
2023/11/04 00:30:25;;;;;;;5.28;3.63;;;;;;;;;;4117291;28;20118;-65
2023/11/04 00:32:29;;;;;;;6.38;4.22;;;;;;;;;;4117219;28;20038;-65
2023/11/04 00:34:33;;;;;;;3.95;3.65;;;;;;;;;;4117271;28;20403;-65
2023/11/04 00:36:36;;;;;;;5.88;3.58;;;;;;;;;;4117217;28;20035;-65
2023/11/04 00:38:40;;;;;;;4.35;3.83;;;;;;;;;;4149241;28;20042;-65
2023/11/04 00:40:43;;;;;;;6.00;4.05;;;;;;;;;;4149362;28;20064;-65
2023/11/04 00:42:47;;;;;;;4.20;2.88;;;;;;;;;;4149614;28;20038;-65
2023/11/04 00:44:50;;;;;;;4.45;3.50;;;;;;;;;;4147112;28;20056;-64
2023/11/04 00:46:53;;;;;;;3.05;2.80;;;;;;;;;;4125822;28;20039;-65
2023/11/04 00:48:59;;;;;;;3.28;3.00;;;;;;;;;;4117146;28;20074;-65
2023/11/04 00:51:02;;;;;;;4.97;4.50;;;;;;;;;;4117189;28;20392;-65
2023/11/04 00:53:06;;;;;;;3.70;2.92;;;;;;;;;;4117054;28;20114;-65
2023/11/04 00:55:09;;;;;;;4.55;3.53;;;;;;;;;;4115977;28;20034;-64
2023/11/04 00:57:13;;;;;;;3.08;2.80;;;;;;;;;;4117068;28;20441;-64
2023/11/04 00:59:16;;;;;;;3.85;3.65;;;;;;;;;;4117080;28;20047;-65
2023/11/04 01:01:19;;;;;;;5.30;2.97;;;;;;;;;;4115562;28;20046;-65
2023/11/04 01:03:21;;;;;;;7.53;3.40;;;;;;;;;;4116893;28;20113;-65
2023/11/04 01:05:28;;;;;;;4.15;3.35;;;;;;;;;;4116308;28;20085;-66
2023/11/04 01:07:31;;;;;;;6.78;4.57;;;;;;;;;;4119528;28;20122;-65
2023/11/04 01:09:35;;;;;;;92.90;9.77;;;;;;;;;;4132816;28;20044;-65
2023/11/04 01:11:43;;;;;;;5.40;4.93;;;;;;;;;;4132716;28;20038;-65
2023/11/04 01:13:47;;;;;;;5.95;5.55;;;;;;;;;;4132975;28;20042;-65
2023/11/04 01:15:51;;;;;;;;;;;;;;;;;;4133142;28;20042;-64
2023/11/04 01:17:54;;;;;;;5.38;5.07;;;;;;;;;;4132731;28;19984;-64
2023/11/04 01:19:58;;;;;;;5.70;5.20;;;;;;;;;;4117748;28;20043;-64
2023/11/04 01:22:02;;;;;;;5.40;5.10;;;;;;;;;;4116022;28;20055;-64
2023/11/04 01:24:06;;;;;;;7.00;5.22;;;;;;;;;;4116484;28;20077;-64
2023/11/04 01:26:09;;;;;;;5.00;4.70;;;;;;;;;;4116484;28;20047;-64
2023/11/04 01:28:13;;;;;;;6.70;5.95;;;;;;;;;;4116581;28;20463;-64
2023/11/04 01:30:17;;;;;;;6.78;6.18;;;;;;;;;;4116431;28;20112;-64
2023/11/04 01:32:20;;;;;;;5.85;5.65;;;;;;;;;;4116400;28;20043;-64
2023/11/04 01:34:23;;;;;;;5.18;4.90;;;;;;;;;;4139913;28;20070;-64
2023/11/04 01:36:27;;;;;;;6.70;4.70;;;;;;;;;;4148476;28;20485;-64
2023/11/04 01:38:31;;;;;;;5.05;4.78;;;;;;;;;;4148607;28;20064;-64
2023/11/04 01:40:34;;;;;;;5.20;4.88;;;;;;;;;;4148399;28;20065;-65
2023/11/04 01:42:44;;;;;;;6.55;4.13;;;;;;;;;;4133772;28;20046;-64
2023/11/04 01:44:48;;;;;;;5.50;4.60;;;;;;;;;;4132165;28;20069;-65
2023/11/04 01:46:50;;;;;;;4.85;3.60;;;;;;;;;;4125311;28;20043;-64
2023/11/04 01:48:52;;;;;;;4.23;3.93;;;;;;;;;;4127032;28;20050;-64
2023/11/04 01:50:54;;;;;;;5.18;3.83;;;;;;;;;;4132038;28;20050;-64
2023/11/04 01:52:56;;;;;;;6.70;3.17;;;;;;;;;;4131912;28;20042;-65
2023/11/04 01:54:58;;;;;;;3.80;3.53;;;;;;;;;;4131873;28;20422;-65
2023/11/04 01:57:00;;;;;;;7.78;4.20;;;;;;;;;;4131952;28;20043;-65
2023/11/04 01:59:02;;;;;;;3.67;3.45;;;;;;;;;;4130559;28;20130;-64
2023/11/04 02:01:04;;;;;;;6.20;5.80;;;;;;;;;;4132030;28;20054;-64
2023/11/04 02:03:06;;;;;;;5.03;4.63;;;;;;;;;;4131699;28;20407;-64
2023/11/04 02:05:08;;;;;;;8.00;7.68;;;;;;;;;;4131256;28;20089;-65
2023/11/04 02:07:10;;;;;;;8.20;7.65;;;;;;;;;;4131547;28;20096;-64
2023/11/04 02:09:12;;;;;;;7.43;6.97;;;;;;;;;;4123525;28;20235;-64
2023/11/04 02:11:13;;;;;;;5.90;5.43;;;;;;;;;;4131724;28;20133;-65
2023/11/04 02:13:15;;;;;;;5.78;5.30;;;;;;;;;;4131573;28;20118;-65
2023/11/04 02:15:17;;;;;;;5.00;4.37;;;;;;;;;;4124400;28;20094;-64
2023/11/04 02:17:19;;;;;;;5.28;4.88;;;;;;;;;;4115285;28;20286;-64
2023/11/04 02:19:21;;;;;;;5.53;5.22;;;;;;;;;;4115397;28;20042;-64
2023/11/04 02:21:22;;;;;;;5.60;5.43;;;;;;;;;;4115452;28;20082;-64
2023/11/04 02:23:25;;;;;;;4.85;4.45;;;;;;;;;;4115325;28;20114;-65
2023/11/04 02:25:33;;;;;;;4.88;3.85;;;;;;;;;;4115252;28;20046;-65
2023/11/04 02:27:35;;;;;;;3.85;3.55;;;;;;;;;;4115180;28;20049;-65
2023/11/04 02:29:38;;;;;;;4.13;3.72;;;;;;;;;;4122529;28;20042;-65
2023/11/04 02:31:43;;;;;;;4.25;3.92;;;;;;;;;;4147503;28;20046;-65
2023/11/04 02:33:44;;;;;;;4.05;3.13;;;;;;;;;;4113790;28;20059;-64
2023/11/04 02:35:49;;;;;;;3.63;3.37;;;;;;;;;;4130049;28;20113;-65
2023/11/04 02:37:52;;;;;;;5.82;3.38;;;;;;;;;;4140836;28;20769;-64
2023/11/04 02:39:54;;;;;;;4.57;4.25;;;;;;;;;;4131227;28;20047;-65
2023/11/04 02:41:55;;;;;;;3.47;3.25;;;;;;;;;;4131252;28;20046;-64
2023/11/04 02:43:57;;;;;;;4.18;3.25;;;;;;;;;;4113755;28;20070;-65
2023/11/04 02:45:59;;;;;;;7.90;3.17;;;;;;;;;;4131127;28;20047;-64
2023/11/04 02:48:01;;;;;;;2.80;2.70;;;;;;;;;;4115041;28;20290;-64
2023/11/04 02:50:03;;;;;;;8.07;4.07;;;;;;;;;;4115230;28;20130;-65
2023/11/04 02:52:05;;;;;;;5.25;3.00;;;;;;;;;;4114907;28;20042;-64
2023/11/04 02:54:11;;;;;;;5.50;4.63;;;;;;;;;;4098485;28;20032;-64
2023/11/04 02:56:16;;;;;;;5.60;3.80;;;;;;;;;;4114886;28;20109;-65
2023/11/04 02:58:17;;;;;;;4.28;3.40;;;;;;;;;;4114785;28;20046;-65
2023/11/04 03:00:19;;;;;;;6.20;3.30;;;;;;;;;;4114870;28;20376;-64
2023/11/04 03:02:21;;;;;;;3.85;3.40;;;;;;;;;;4114896;28;20051;-64
2023/11/04 03:04:24;;;;;;;4.13;3.90;;;;;;;;;;4114758;28;20058;-65
2023/11/04 03:06:26;;;;;;;5.72;3.55;;;;;;;;;;4114643;28;20091;-65
2023/11/04 03:08:29;;;;;;;2.67;2.67;;;;;;;;;;4125393;28;20049;-64
2023/11/04 03:10:31;;;;;;;2.88;2.75;;;;;;;;;;4113283;28;20105;-64
2023/11/04 03:12:32;;;;;;;5.45;3.55;;;;;;;;;;4115460;28;20043;-64
2023/11/04 03:14:34;;;;;;;5.30;3.38;;;;;;;;;;4114871;28;20046;-65
2023/11/04 03:16:37;;;;;;;6.65;3.85;;;;;;;;;;4114878;28;20038;-65
2023/11/04 03:18:39;;;;;;;4.10;3.83;;;;;;;;;;4114126;28;20105;-65
2023/11/04 03:20:41;;;;;;;4.50;4.30;;;;;;;;;;4114629;28;20514;-65
2023/11/04 03:22:42;;;;;;;3.05;2.85;;;;;;;;;;4097537;29;20116;-65
2023/11/04 03:24:45;;;;;;;2.87;2.73;;;;;;;;;;4114559;28;20418;-65
2023/11/04 03:26:46;;;;;;;3.70;3.42;;;;;;;;;;4136503;28;20474;-65
2023/11/04 03:28:51;;;;;;;6.00;3.83;;;;;;;;;;4147079;28;20071;-65
2023/11/04 03:30:52;;;;;;;3.80;3.53;;;;;;;;;;4146624;28;20168;-64
2023/11/04 03:32:54;;;;;;;4.93;3.47;;;;;;;;;;4146708;28;20044;-65
2023/11/04 03:34:56;;;;;;;4.23;4.03;;;;;;;;;;4133720;28;20281;-65
2023/11/04 03:36:57;;;;;;;4.70;4.40;;;;;;;;;;4113246;28;20039;-65
2023/11/04 03:38:59;;;;;;;6.23;4.67;;;;;;;;;;4130574;28;20300;-65
2023/11/04 03:41:01;;;;;;;4.93;4.50;;;;;;;;;;4130544;28;20289;-65
2023/11/04 03:43:03;;;;;;;4.90;4.63;;;;;;;;;;4130335;28;20129;-64
2023/11/04 03:45:06;;;;;;;5.43;4.97;;;;;;;;;;4130707;28;20129;-64
2023/11/04 03:47:07;;;;;;;6.68;6.03;;;;;;;;;;4121413;28;20062;-65
2023/11/04 03:49:09;;;;;;;6.40;5.80;;;;;;;;;;4114571;28;20054;-65
2023/11/04 03:51:11;;;;;;;6.07;5.78;;;;;;;;;;4114377;28;20785;-64
2023/11/04 03:53:14;;;;;;;6.20;5.90;;;;;;;;;;4114874;28;20097;-64
2023/11/04 03:55:16;;;;;;;5.65;5.10;;;;;;;;;;4114325;28;20411;-64
2023/11/04 03:57:18;;;;;;;4.82;4.53;;;;;;;;;;4114377;28;20511;-65
2023/11/04 03:59:20;;;;;;;6.75;6.28;;;;;;;;;;4114628;28;20039;-64
2023/11/04 04:01:22;;;;;;;7.57;5.88;;;;;;;;;;4114438;28;20062;-64
2023/11/04 04:03:25;;;;;;;5.53;5.00;;;;;;;;;;4114396;28;20043;-65
2023/11/04 04:05:27;;;;;;;5.00;4.30;;;;;;;;;;4114335;28;20075;-65
2023/11/04 04:07:29;;;;;;;4.03;3.63;;;;;;;;;;4116993;28;20491;-65
2023/11/04 04:09:32;;;;;;;4.33;3.97;;;;;;;;;;4130422;28;20297;-64
2023/11/04 04:11:34;;;;;;;5.20;5.00;;;;;;;;;;4129032;28;20132;-64
2023/11/04 04:13:36;;;;;;;4.45;4.30;;;;;;;;;;4130279;28;20042;-64
2023/11/04 04:15:38;;;;;;;7.85;5.65;;;;;;;;;;4130251;28;20046;-65
2023/11/04 04:17:39;;;;;;;4.90;4.43;;;;;;;;;;4130519;28;20038;-65
2023/11/04 04:19:41;;;;;;;4.50;4.40;;;;;;;;;;4130422;28;20039;-64
2023/11/04 04:21:43;;;;;;;6.72;3.80;;;;;;;;;;4130803;28;20042;-64
2023/11/04 04:23:46;;;;;;;4.10;3.92;;;;;;;;;;4146676;28;20066;-64
2023/11/04 04:25:48;;;;;;;4.80;4.35;;;;;;;;;;4146562;28;20498;-64
2023/11/04 04:27:50;;;;;;;7.47;4.28;;;;;;;;;;4146627;28;20049;-64
2023/11/04 04:29:52;;;;;;;6.47;4.30;;;;;;;;;;4143781;28;20046;-64
2023/11/04 04:31:54;;;;;;;4.73;3.30;;;;;;;;;;4133136;28;20285;-65
2023/11/04 04:33:56;;;;;;;;;;;;;;;;;;4133688;28;20042;-64
2023/11/04 04:35:57;;;;;;;7.20;4.50;;;;;;;;;;4133044;28;19936;-65
2023/11/04 04:37:59;;;;;;;3.60;3.33;;;;;;;;;;4133036;28;20125;-64
2023/11/04 04:40:03;;;;;;;3.03;2.92;;;;;;;;;;4132871;28;20285;-64
2023/11/04 04:42:05;;;;;;;3.13;3.03;;;;;;;;;;4133177;28;20042;-64
2023/11/04 04:44:06;;;;;;;3.75;3.50;;;;;;;;;;4132918;28;20529;-64
2023/11/04 04:46:08;;;;;;;3.97;3.67;;;;;;;;;;4132842;28;20046;-65
2023/11/04 04:48:10;;;;;;;6.53;3.63;;;;;;;;;;4132993;28;20053;-65
2023/11/04 04:50:11;;;;;;;3.78;3.47;;;;;;;;;;4132930;28;20096;-65
2023/11/04 04:52:13;;;;;;;6.68;2.88;;;;;;;;;;4133122;28;20050;-64
2023/11/04 04:54:15;;;;;;;4.80;3.03;;;;;;;;;;4132925;28;20056;-65
2023/11/04 04:56:17;;;;;;;45.97;6.20;;;;;;;;;;4132824;28;20038;-64
2023/11/04 04:58:18;;;;;;;5.18;4.90;;;;;;;;;;4133046;28;20316;-65
2023/11/04 05:00:22;;;;;;;5.72;5.20;;;;;;;;;;4133021;28;20038;-64
2023/11/04 05:02:23;;;;;;;7.03;4.47;;;;;;;;;;4132970;28;20047;-64
2023/11/04 05:04:25;;;;;;;5.70;4.67;;;;;;;;;;4122021;28;20043;-64
2023/11/04 05:06:28;;;;;;;32.70;5.90;;;;;;;;;;4116248;28;20846;-64
2023/11/04 05:08:30;;;;;;;157.77;9.07;;;;;;;;;;4127220;28;20423;-65
2023/11/04 05:10:33;;;;;;;156.70;10.27;;;;;;;;;;4115172;28;20091;-65
2023/11/04 05:12:35;;;;;;;62.88;7.35;;;;;;;;;;4115321;28;20050;-64
2023/11/04 05:14:36;;;;;;;5.47;5.32;;;;;;;;;;4132815;28;20125;-64
2023/11/04 05:16:38;;;;;;;5.17;5.03;;;;;;;;;;4132761;28;20052;-64
2023/11/04 05:18:40;;;;;;;15.98;5.32;;;;;;;;;;4121057;28;20038;-64
2023/11/04 05:20:42;;;;;;;9.77;6.32;;;;;;;;;;4148610;28;20034;-65
2023/11/04 05:22:43;;;;;;;5.93;5.72;;;;;;;;;;4131245;28;20057;-64
2023/11/04 05:24:45;;;;;;;6.07;6.00;;;;;;;;;;4148595;28;20045;-64
2023/11/04 05:26:47;;;;;;;4.93;4.82;;;;;;;;;;4135419;28;20039;-65
2023/11/04 05:28:49;;;;;;;3.53;3.10;;;;;;;;;;4120259;28;20050;-65
2023/11/04 05:30:50;;;;;;;4.38;4.28;;;;;;;;;;4116195;28;20050;-64
2023/11/04 05:32:52;;;;;;;5.28;4.30;;;;;;;;;;4116284;28;20495;-64
2023/11/04 05:34:54;;;;;;;3.83;3.67;;;;;;;;;;4116140;28;20503;-64
2023/11/04 05:36:56;;;;;;;5.80;5.57;;;;;;;;;;4116063;28;20372;-64
2023/11/04 05:38:58;;;;;;;5.53;5.38;;;;;;;;;;4098637;29;20095;-65
2023/11/04 05:41:01;;;;;;;4.77;4.53;;;;;;;;;;4115771;28;20051;-64
2023/11/04 05:43:02;;;;;;;4.82;4.43;;;;;;;;;;4116029;28;20050;-64
2023/11/04 05:45:04;;;;;;;5.57;5.38;;;;;;;;;;4098846;28;20043;-64
2023/11/04 05:47:06;;;;;;;4.93;4.78;;;;;;;;;;4115779;28;20046;-64
2023/11/04 05:49:08;;;;;;;6.65;6.03;;;;;;;;;;4116224;28;20117;-64
2023/11/04 05:51:11;;;;;;;5.72;5.30;;;;;;;;;;4116174;28;20045;-64
2023/11/04 05:53:13;;;;;;;5.47;5.32;;;;;;;;;;4115721;28;20041;-65
2023/11/04 05:55:15;;;;;;;5.47;5.07;;;;;;;;;;4115800;28;20081;-64
2023/11/04 05:57:17;;;;;;;8.38;6.22;;;;;;;;;;4116018;28;20106;-65
2023/11/04 05:59:18;;;;;;;5.70;5.35;;;;;;;;;;4115996;28;20043;-64
2023/11/04 06:01:24;;;;;;;13.10;5.93;;;;;;;;;;4115651;28;20039;-64
2023/11/04 06:03:25;;;;;;;6.32;5.72;;;;;;;;;;4115806;28;20329;-64
2023/11/04 06:05:27;;;;;;;6.20;5.20;;;;;;;;;;4115343;28;20086;-64
2023/11/04 06:07:29;;;;;;;5.83;5.20;;;;;;;;;;4118775;28;20043;-65
2023/11/04 06:09:32;;;;;;;;;;;;;;;;;;4130388;28;20618;-64
2023/11/04 06:11:36;;;;;;;6.82;4.10;;;;;;;;;;4131406;28;20550;-64
2023/11/04 06:13:37;;;;;;;5.75;5.40;;;;;;;;;;4128220;28;20045;-64
2023/11/04 06:15:39;;;;;;;8.43;5.70;;;;;;;;;;4143505;28;20037;-64
2023/11/04 06:17:44;;;;;;;5.30;5.00;;;;;;;;;;4147926;28;20494;-64
2023/11/04 06:19:45;;;;;;;4.55;4.45;;;;;;;;;;4147718;28;20042;-65
2023/11/04 06:21:50;;;;;;;4.43;4.22;;;;;;;;;;4129995;28;20056;-64
2023/11/04 06:23:51;;;;;;;5.65;4.72;;;;;;;;;;4132882;28;20048;-63
2023/11/04 06:25:53;;;;;;;5.38;5.18;;;;;;;;;;4131712;28;20042;-64
2023/11/04 06:27:55;;;;;;;4.43;3.90;;;;;;;;;;4131492;28;20125;-63
2023/11/04 06:29:57;;;;;;;4.55;4.25;;;;;;;;;;4129624;28;20108;-63
2023/11/04 06:31:59;;;;;;;4.60;4.30;;;;;;;;;;4126818;28;20053;-64
2023/11/04 06:34:00;;;;;;;8.77;3.60;;;;;;;;;;4123247;28;20101;-64
2023/11/04 06:36:02;;;;;;;3.45;3.33;;;;;;;;;;4125094;28;20407;-63
2023/11/04 06:38:04;;;;;;;5.07;4.70;;;;;;;;;;4122800;28;20097;-63
2023/11/04 06:40:09;;;;;;;4.05;3.95;;;;;;;;;;4131025;28;20054;-63
2023/11/04 06:42:18;;;;;;;3.70;3.50;;;;;;;;;;4114060;28;20566;-63
2023/11/04 06:44:20;;;;;;;5.05;4.72;;;;;;;;;;4125626;28;20116;-63
2023/11/04 06:46:22;;;;;;;5.55;4.30;;;;;;;;;;4127486;28;20070;-64
2023/11/04 06:48:24;;;;;;;3.93;3.67;;;;;;;;;;4115000;28;20511;-63
2023/11/04 06:50:26;;;;;;;3.75;3.47;;;;;;;;;;4115124;28;20097;-63
2023/11/04 06:52:29;;;;;;;4.90;4.63;;;;;;;;;;4114672;28;20118;-63
2023/11/04 06:54:31;;;;;;;8.13;3.70;;;;;;;;;;4114680;28;20046;-63
2023/11/04 06:56:33;;;;;;;4.47;4.30;;;;;;;;;;4114831;28;20043;-63
2023/11/04 06:58:34;;;;;;;4.28;3.72;;;;;;;;;;4114911;28;20293;-64
2023/11/04 07:00:36;;;;;;;9.52;5.03;;;;;;;;;;4113424;28;20158;-64
2023/11/04 07:02:41;;;;;;;6.03;5.80;;;;;;;;;;4117629;28;20057;-64
2023/11/04 07:04:42;;;;;;;5.55;5.05;;;;;;;;;;4122977;28;20085;-63
2023/11/04 07:06:44;;;;;;;4.13;3.80;;;;;;;;;;4123405;28;20090;-63
2023/11/04 07:08:46;;;;;;;5.27;4.93;;;;;;;;;;4127315;28;20819;-65
2023/11/04 07:10:48;;;;;;;7.25;6.63;;;;;;;;;;4133971;28;20409;-63
2023/11/04 07:12:52;;;;;;;7.07;6.13;;;;;;;;;;4126864;28;20073;-63
2023/11/04 07:14:53;;;;;;;4.33;4.20;;;;;;;;;;4130620;28;20044;-64
2023/11/04 07:16:55;;;;;;;5.80;5.30;;;;;;;;;;4130649;28;20046;-63
2023/11/04 07:18:57;;;;;;;5.78;5.35;;;;;;;;;;4130395;28;20289;-62
2023/11/04 07:20:59;;;;;;;4.97;4.75;;;;;;;;;;4130611;28;20042;-62
2023/11/04 07:23:01;;;;;;;5.57;3.28;;;;;;;;;;4129610;28;20100;-62
2023/11/04 07:25:03;;;;;;;3.85;3.60;;;;;;;;;;4130537;28;20100;-62
2023/11/04 07:27:05;;;;;;;3.53;3.42;;;;;;;;;;4123836;28;20050;-63
2023/11/04 07:29:07;;;;;;;4.07;2.90;;;;;;;;;;4122962;28;20050;-63
2023/11/04 07:31:08;;;;;;;4.93;3.27;;;;;;;;;;4123890;28;20065;-62
2023/11/04 07:33:10;;;;;;;4.63;3.37;;;;;;;;;;4118950;28;20049;-63
2023/11/04 07:35:12;;;;;;;5.85;5.65;;;;;;;;;;4121348;28;20034;-62
2023/11/04 07:37:14;;;;;;;6.47;6.07;;;;;;;;;;4124216;28;20070;-63
2023/11/04 07:39:15;;;;;;;6.65;6.00;;;;;;;;;;4125781;28;20050;-62
2023/11/04 07:41:17;;;;;;;5.55;5.35;;;;;;;;;;4125183;28;20039;-62
2023/11/04 07:43:19;;;;;;;5.30;4.90;;;;;;;;;;4114697;28;20102;-63
2023/11/04 07:45:21;;;;;;;5.95;5.45;;;;;;;;;;4097241;28;20083;-63
2023/11/04 07:47:23;;;;;;;5.07;4.80;;;;;;;;;;4106956;28;20049;-63
2023/11/04 07:49:24;;;;;;;6.27;5.77;;;;;;;;;;4112363;28;20054;-63
2023/11/04 07:51:26;;;;;;;6.57;6.07;;;;;;;;;;4098341;28;20054;-63
2023/11/04 07:53:28;;;;;;;8.53;7.47;;;;;;;;;;4120266;28;20289;-63
2023/11/04 07:55:29;;;;;;;6.10;4.43;;;;;;;;;;4124918;28;20057;-63
2023/11/04 07:57:32;;;;;;;5.63;5.20;;;;;;;;;;4114502;28;20646;-64
2023/11/04 07:59:33;;;;;;;5.40;5.15;;;;;;;;;;4123753;28;20340;-63
2023/11/04 08:01:36;;;;;;;4.60;4.28;;;;;;;;;;4116511;28;20503;-64
2023/11/04 08:03:38;;;;;;;4.15;3.67;;;;;;;;;;4110319;28;20043;-65
2023/11/04 08:05:40;;;;;;;3.65;3.45;;;;;;;;;;4126948;28;20534;-64
2023/11/04 08:07:42;;;;;;;;;;;;;;;;;;4129573;28;20778;-64
2023/11/04 08:09:44;;;;;;;4.35;4.07;;;;;;;;;;4132138;28;19933;-64
2023/11/04 08:11:45;;;;;;;4.75;4.30;;;;;;;;;;4130319;28;20510;-63
2023/11/04 08:13:47;;;;;;;5.15;4.75;;;;;;;;;;4122482;28;20120;-63
2023/11/04 08:15:49;;;;;;;5.33;5.03;;;;;;;;;;4130547;28;20404;-64
2023/11/04 08:17:50;;;;;;;5.25;4.97;;;;;;;;;;4133047;28;20050;-63
2023/11/04 08:19:52;;;;;;;7.35;4.72;;;;;;;;;;4132964;28;20431;-63
2023/11/04 08:21:54;;;;;;;6.55;6.00;;;;;;;;;;4114009;28;20487;-63
2023/11/04 08:23:56;;;;;;;5.78;5.43;;;;;;;;;;4123848;28;20078;-63
2023/11/04 08:26:00;;;;;;;6.22;5.85;;;;;;;;;;4130353;28;20093;-64
2023/11/04 08:28:01;;;;;;;5.97;5.45;;;;;;;;;;4127032;28;20042;-64
2023/11/04 08:30:04;;;;;;;6.47;5.93;;;;;;;;;;4120714;28;20046;-64
2023/11/04 08:32:06;;;;;;;5.85;5.50;;;;;;;;;;4116803;28;20418;-64
2023/11/04 08:34:08;;;;;;;8.43;4.83;;;;;;;;;;4115560;28;20046;-64
2023/11/04 08:36:10;;;;;;;5.97;4.85;;;;;;;;;;4116826;28;20427;-64
2023/11/04 08:38:12;;;;;;;4.93;3.58;;;;;;;;;;4116885;28;20034;-64
2023/11/04 08:40:14;;;;;;;4.27;3.97;;;;;;;;;;4116502;28;20516;-64
2023/11/04 08:42:16;;;;;;;5.70;5.20;;;;;;;;;;4116873;28;20298;-63
2023/11/04 08:44:17;;;;;;;7.43;5.53;;;;;;;;;;4116793;28;20046;-65
2023/11/04 08:46:20;;;;;;;5.22;4.85;;;;;;;;;;4116504;28;20050;-65
2023/11/04 08:48:21;;;;;;;5.45;5.20;;;;;;;;;;4122348;28;20049;-64
2023/11/04 08:50:23;;;;;;;4.43;4.03;;;;;;;;;;4132843;28;20046;-63
2023/11/04 08:52:25;;;;;;;4.87;4.57;;;;;;;;;;4115418;28;20290;-64
2023/11/04 08:54:26;;;;;;;4.17;3.70;;;;;;;;;;4132780;28;20290;-63
2023/11/04 08:56:28;;;;;;;4.03;3.63;;;;;;;;;;4132898;28;20449;-64
2023/11/04 08:58:30;;;;;;;3.53;3.42;;;;;;;;;;4132804;28;20038;-64
2023/11/04 09:00:32;;;;;;;4.07;3.80;;;;;;;;;;4132986;28;20042;-65
2023/11/04 09:02:34;;;;;;;3.40;3.25;;;;;;;;;;4132556;28;20585;-64
2023/11/04 09:04:35;;;;;;;3.40;3.30;;;;;;;;;;4132180;28;20093;-64
2023/11/04 09:06:38;;;;;;;3.45;3.17;;;;;;;;;;4131995;28;20285;-64
2023/11/04 09:08:40;;;;;;;3.10;2.88;;;;;;;;;;4129965;28;20042;-64
2023/11/04 09:10:42;;;;;;;4.63;3.97;;;;;;;;;;4131986;28;20104;-64
2023/11/04 09:12:44;;;;;;;3.85;3.60;;;;;;;;;;4132204;28;20502;-63
2023/11/04 09:14:45;;;;;;;8.02;4.20;;;;;;;;;;4131545;28;20416;-63
2023/11/04 09:16:49;;;;;;;3.60;3.40;;;;;;;;;;4131557;28;20042;-63
2023/11/04 09:18:51;;;;;;;3.55;3.35;;;;;;;;;;4130946;28;20035;-63
2023/11/04 09:20:53;;;;;;;4.93;3.60;;;;;;;;;;4130595;28;20042;-63
2023/11/04 09:22:54;;;;;;;6.07;2.92;;;;;;;;;;4131430;28;20438;-63
2023/11/04 09:24:56;;;;;;;8.85;3.50;;;;;;;;;;4131639;28;20186;-63
2023/11/04 09:26:58;;;;;;;6.25;3.35;;;;;;;;;;4132280;28;20465;-63
2023/11/04 09:29:00;;;;;;;8.50;3.72;;;;;;;;;;4132537;28;20039;-64
2023/11/04 09:31:02;;;;;;;2.75;2.50;;;;;;;;;;4132277;28;20052;-64
2023/11/04 09:33:04;;;;;;;8.15;2.95;;;;;;;;;;4132285;28;20688;-63
2023/11/04 09:35:06;;;;;;;4.30;3.13;;;;;;;;;;4132090;28;20137;-63
2023/11/04 09:37:08;;;;;;;4.40;2.72;;;;;;;;;;4132544;28;20101;-64
2023/11/04 09:39:10;;;;;;;3.60;3.40;;;;;;;;;;4131947;28;20046;-64
2023/11/04 09:41:11;;;;;;;5.25;3.08;;;;;;;;;;4132354;28;20642;-64
2023/11/04 09:43:14;;;;;;;2.87;2.77;;;;;;;;;;4132266;28;20089;-65
2023/11/04 09:45:19;;;;;;;2.80;2.70;;;;;;;;;;4132067;28;20045;-64
2023/11/04 09:47:21;;;;;;;2.30;2.03;;;;;;;;;;4132157;28;20043;-64
2023/11/04 09:49:22;;;;;;;2.50;2.40;;;;;;;;;;4131926;28;20050;-64
2023/11/04 09:51:26;;;;;;;4.35;3.28;;;;;;;;;;4132248;28;20789;-65
2023/11/04 09:53:32;;;;;;;4.50;3.30;;;;;;;;;;4114687;28;20053;-65
2023/11/04 09:55:35;;;;;;;13.18;2.58;;;;;;;;;;4132016;28;20062;-65
2023/11/04 09:57:37;;;;;;;13.65;2.88;;;;;;;;;;4131830;28;20387;-65
2023/11/04 09:59:42;;;;;;;3.88;2.97;;;;;;;;;;4136183;28;20065;-65
2023/11/04 10:01:44;;;;;;;7.10;3.08;;;;;;;;;;4148230;28;20042;-64
2023/11/04 10:03:48;;;;;;;3.00;2.70;;;;;;;;;;4148179;28;20077;-64
2023/11/04 10:05:51;;;;;;;6.38;3.72;;;;;;;;;;4147704;28;20295;-65
2023/11/04 10:07:53;;;;;;;;;;;;;;;;;;4124059;28;20161;-65
2023/11/04 10:09:55;;;;;;;2.95;2.55;;;;;;;;;;4131503;28;19987;-66
2023/11/04 10:11:57;;;;;;;3.40;2.65;;;;;;;;;;4131902;28;20100;-66
2023/11/04 10:14:01;;;;;;;3.25;2.80;;;;;;;;;;4131510;28;20050;-64
2023/11/04 10:16:06;;;;;;;3.53;2.58;;;;;;;;;;4131546;28;20042;-64
2023/11/04 10:18:07;;;;;;;6.00;3.17;;;;;;;;;;4131549;28;20467;-65
2023/11/04 10:20:11;;;;;;;5.63;2.63;;;;;;;;;;4131471;28;20124;-65
2023/11/04 10:22:14;;;;;;;5.93;3.35;;;;;;;;;;4131704;28;20040;-64
2023/11/04 10:24:18;;;;;;;3.20;2.80;;;;;;;;;;4131412;28;20078;-64
2023/11/04 10:26:22;;;;;;;2.83;2.65;;;;;;;;;;4131578;28;20038;-65
2023/11/04 10:28:24;;;;;;;4.70;2.25;;;;;;;;;;4129861;28;20059;-65
2023/11/04 10:30:26;;;;;;;4.38;2.80;;;;;;;;;;4131576;28;20039;-64
2023/11/04 10:32:32;;;;;;;2.95;2.70;;;;;;;;;;4131243;28;20042;-65
2023/11/04 10:34:40;;;;;;;5.75;2.08;;;;;;;;;;4131100;28;20521;-65
2023/11/04 10:36:44;;;;;;;9.07;2.65;;;;;;;;;;4131356;28;20053;-66
2023/11/04 10:38:51;;;;;;;3.22;2.83;;;;;;;;;;4130152;28;20042;-65
2023/11/04 10:40:53;;;;;;;7.60;2.33;;;;;;;;;;4130121;28;20097;-65
2023/11/04 10:43:01;;;;;;;5.05;2.35;;;;;;;;;;4126343;28;20042;-65
2023/11/04 10:45:09;;;;;;;6.00;2.35;;;;;;;;;;4125576;28;20883;-65
2023/11/04 10:47:10;;;;;;;2.63;2.42;;;;;;;;;;4108174;28;20101;-65
2023/11/04 10:49:21;;;;;;;5.20;2.87;;;;;;;;;;4127771;28;20069;-64
2023/11/04 10:51:24;;;;;;;10.40;2.63;;;;;;;;;;4109770;28;20043;-64
2023/11/04 10:53:26;;;;;;;6.32;3.85;;;;;;;;;;4129871;28;20407;-66
2023/11/04 10:55:31;;;;;;;9.67;2.77;;;;;;;;;;4124898;28;20255;-65
2023/11/04 10:57:37;;;;;;;5.03;2.83;;;;;;;;;;4133897;28;20064;-65
2023/11/04 10:59:43;;;;;;;3.85;2.35;;;;;;;;;;4129320;28;20038;-65
2023/11/04 11:01:46;;;;;;;10.02;3.00;;;;;;;;;;4097653;28;20619;-65
2023/11/04 11:03:50;;;;;;;4.88;2.58;;;;;;;;;;4099135;28;20043;-66
2023/11/04 11:05:52;;;;;;;3.30;3.10;;;;;;;;;;4129702;28;20556;-65
2023/11/04 11:07:54;;;;;;;4.03;3.50;;;;;;;;;;4129084;28;20096;-65
2023/11/04 11:09:57;;;;;;;4.90;2.95;;;;;;;;;;4129241;28;20046;-66
2023/11/04 11:12:06;;;;;;;9.85;3.67;;;;;;;;;;4129564;28;20038;-65
2023/11/04 11:14:08;;;;;;;4.85;2.95;;;;;;;;;;4129981;28;20402;-65
2023/11/04 11:16:10;;;;;;;5.07;4.35;;;;;;;;;;4129675;28;20038;-65
2023/11/04 11:18:11;;;;;;;4.68;2.60;;;;;;;;;;4128497;28;20038;-64
2023/11/04 11:20:28;;;;;;;4.85;1.98;;;;;;;;;;4128658;28;20490;-64
2023/11/04 11:22:30;;;;;;;4.32;1.55;;;;;;;;;;4130564;28;20125;-65
2023/11/04 11:24:32;;;;;;;4.13;1.77;;;;;;;;;;4113334;28;20035;-65
2023/11/04 11:26:34;;;;;;;;;;;;;;;;;;4130076;28;20459;-66
2023/11/04 11:28:37;;;;;;;1.73;1.63;;;;;;;;;;4125379;28;19926;-64
2023/11/04 11:30:39;;;;;;;2.20;2.05;;;;;;;;;;4128887;28;20042;-66
2023/11/04 11:32:41;;;;;;;2.63;2.45;;;;;;;;;;4129524;28;20058;-65
2023/11/04 11:34:49;;;;;;;3.30;2.05;;;;;;;;;;4130543;28;20038;-65
2023/11/04 11:36:52;;;;;;;3.33;1.52;;;;;;;;;;4130197;28;20057;-64
2023/11/04 11:38:56;;;;;;;4.10;2.50;;;;;;;;;;4128943;28;20035;-64
2023/11/04 11:41:03;;;;;;;4.47;3.17;;;;;;;;;;4134997;28;20537;-64
2023/11/04 11:43:05;;;;;;;2.33;2.10;;;;;;;;;;4127817;28;20093;-66
2023/11/04 11:45:09;;;;;;;2.30;1.73;;;;;;;;;;4130547;28;20046;-66
2023/11/04 11:47:12;;;;;;;4.88;1.80;;;;;;;;;;4133336;28;20057;-65
2023/11/04 11:49:13;;;;;;;3.85;1.70;;;;;;;;;;4135423;28;20105;-65
2023/11/04 11:51:15;;;;;;;4.72;2.20;;;;;;;;;;4135172;28;20070;-65
2023/11/04 11:53:17;;;;;;;1.52;1.40;;;;;;;;;;4134843;28;20121;-65
2023/11/04 11:55:19;;;;;;;2.75;2.38;;;;;;;;;;4134403;28;20042;-66
2023/11/04 11:57:21;;;;;;;5.35;2.38;;;;;;;;;;4133603;28;20050;-65
2023/11/04 11:59:22;;;;;;;3.30;1.80;;;;;;;;;;4134897;28;20093;-66
2023/11/04 12:01:24;;;;;;;5.97;1.70;;;;;;;;;;4135021;28;20442;-66
2023/11/04 12:03:27;;;;;;;2.03;1.65;;;;;;;;;;4133018;28;20046;-65
2023/11/04 12:05:29;;;;;;;2.63;1.88;;;;;;;;;;4134485;28;20058;-65
2023/11/04 12:07:31;;;;;;;2.20;2.05;;;;;;;;;;4130722;28;20121;-65
2023/11/04 12:09:34;;;;;;;;;;;;;;;;;;4134461;28;20048;-65
2023/11/04 12:11:35;;;;;;;2.00;1.90;;;;;;;;;;4119705;28;19922;-65
2023/11/04 12:13:37;;;;;;;3.90;1.80;;;;;;;;;;4131763;28;20061;-65
2023/11/04 12:15:40;;;;;;;2.90;2.75;;;;;;;;;;4131563;28;20297;-64
2023/11/04 12:17:42;;;;;;;3.22;2.90;;;;;;;;;;4132380;28;20038;-65